Time;durP1;ratioP1;P1;durP2;ratioP2;P2;SDS_P1;SDS_P2;PMS_P1;PMS_P2;Temp;Humidity;BMP_temperature;BMP_pressure;BME280_temperature;BME280_humidity;BME280_pressure;Samples;Min_cycle;Max_cycle;Signal;HPM_P1;HPM_P2
2021/12/22 00:01:52;;;;;;;16.00;7.03;;;-1.10;99.90;;;;;;5079768;28;20048;-42
2021/12/22 00:04:18;;;;;;;19.75;8.10;;;-1.10;99.90;;;;;;5092572;28;20020;-42
2021/12/22 00:06:43;;;;;;;14.07;7.00;;;-1.10;99.90;;;;;;5093568;28;20073;-43
2021/12/22 00:09:09;;;;;;;14.07;6.70;;;-1.10;99.90;;;;;;5093682;28;20024;-43
2021/12/22 00:11:35;;;;;;;14.45;6.43;;;-1.10;99.90;;;;;;5092873;28;20479;-42
2021/12/22 00:14:00;;;;;;;14.88;5.68;;;-1.10;99.90;;;;;;5093470;28;20088;-42
2021/12/22 00:16:26;;;;;;;12.00;6.65;;;-1.10;99.90;;;;;;5093553;28;20024;-42
2021/12/22 00:18:52;;;;;;;13.18;6.78;;;-1.20;99.90;;;;;;5092904;28;20027;-43
2021/12/22 00:21:17;;;;;;;8.35;5.30;;;-1.10;99.90;;;;;;5088327;28;20017;-44
2021/12/22 00:23:43;;;;;;;20.92;7.20;;;-1.20;99.90;;;;;;5073123;28;20024;-42
2021/12/22 00:26:09;;;;;;;18.08;7.20;;;-1.20;99.90;;;;;;5072532;28;20016;-42
2021/12/22 00:28:34;;;;;;;13.35;7.28;;;-1.20;99.90;;;;;;5073135;28;20024;-42
2021/12/22 00:31:01;;;;;;;12.65;6.47;;;-1.20;99.90;;;;;;5072641;28;20017;-42
2021/12/22 00:33:32;;;;;;;10.38;5.03;;;-1.30;99.90;;;;;;5073123;28;20020;-42
2021/12/22 00:35:57;;;;;;;11.82;5.47;;;-1.30;99.90;;;;;;5073026;28;20028;-43
2021/12/22 00:38:23;;;;;;;18.75;6.13;;;-1.30;99.90;;;;;;5072417;28;20025;-42
2021/12/22 00:40:50;;;;;;;13.23;5.78;;;-1.30;99.90;;;;;;5075745;28;20486;-43
2021/12/22 00:43:17;;;;;;;15.65;6.07;;;-1.30;99.90;;;;;;5092735;28;20031;-42
2021/12/22 00:45:43;;;;;;;12.40;5.80;;;-1.30;99.90;;;;;;5092569;28;20024;-43
2021/12/22 00:48:09;;;;;;;13.38;6.25;;;-1.30;99.90;;;;;;5092664;28;20089;-41
2021/12/22 00:50:36;;;;;;;9.77;5.60;;;-1.40;99.90;;;;;;5092783;28;20111;-42
2021/12/22 00:53:02;;;;;;;13.88;6.22;;;-1.40;99.90;;;;;;5092564;28;20062;-44
2021/12/22 00:55:28;;;;;;;14.05;4.95;;;-1.40;99.90;;;;;;5093094;28;20040;-42
2021/12/22 00:57:54;;;;;;;13.00;5.85;;;-1.40;99.90;;;;;;5092948;28;20028;-42
2021/12/22 01:00:22;;;;;;;7.40;4.65;;;-1.50;99.90;;;;;;5090745;28;20135;-42
2021/12/22 01:02:48;;;;;;;;;;;-1.50;99.90;;;;;;5073237;28;20375;-42
2021/12/22 01:05:15;;;;;;;13.07;3.95;;;-1.50;99.90;;;;;;5072671;28;19995;-43
2021/12/22 01:07:42;;;;;;;14.50;6.30;;;-1.60;99.90;;;;;;5072268;28;20020;-42
2021/12/22 01:10:09;;;;;;;12.98;5.68;;;-1.60;99.90;;;;;;5072691;28;20023;-42
2021/12/22 01:12:34;;;;;;;16.02;5.93;;;-1.60;99.90;;;;;;5072705;28;20021;-41
2021/12/22 01:15:00;;;;;;;10.82;6.20;;;-1.60;99.90;;;;;;5072160;28;20483;-42
2021/12/22 01:17:26;;;;;;;16.23;7.10;;;-1.60;99.90;;;;;;5072633;28;20025;-44
2021/12/22 01:25:03;;;;;;;7.72;5.18;;;-1.70;99.90;;;;;;5093173;28;20063;-42
2021/12/22 01:27:38;;;;;;;17.25;5.88;;;-1.70;99.90;;;;;;5092247;28;20016;-42
2021/12/22 01:30:14;;;;;;;9.57;6.22;;;-1.70;99.90;;;;;;5092341;28;20510;-43
2021/12/22 01:32:42;;;;;;;10.88;5.10;;;-1.70;99.90;;;;;;5092678;28;20028;-43
2021/12/22 01:35:12;;;;;;;14.43;6.88;;;-1.70;99.90;;;;;;5092184;28;20016;-42
2021/12/22 01:37:38;;;;;;;15.98;6.55;;;-1.70;99.90;;;;;;5092699;28;20081;-42
2021/12/22 01:40:05;;;;;;;11.32;6.10;;;-1.70;99.90;;;;;;5092468;28;20028;-42
2021/12/22 01:42:31;;;;;;;13.02;5.93;;;-1.80;99.90;;;;;;5092073;28;20020;-41
2021/12/22 01:45:13;;;;;;;15.50;6.88;;;-1.80;99.90;;;;;;5085963;28;20502;-42
2021/12/22 01:50:46;;;;;;;7.45;5.65;;;-1.90;99.90;;;;;;5072184;28;20063;-42
2021/12/22 01:53:21;;;;;;;8.52;6.05;;;-1.90;99.90;;;;;;5072270;28;20154;-42
2021/12/22 01:55:59;;;;;;;11.48;5.75;;;-1.90;99.90;;;;;;5071768;28;20070;-42
2021/12/22 01:58:36;;;;;;;16.48;7.47;;;-1.90;99.90;;;;;;5072243;28;20043;-42
2021/12/22 02:01:04;;;;;;;6.18;4.35;;;-1.90;99.90;;;;;;5072854;28;20182;-42
2021/12/22 02:03:30;;;;;;;15.88;7.22;;;-1.90;99.90;;;;;;5075291;28;20024;-41
2021/12/22 02:05:56;;;;;;;12.55;5.68;;;-1.90;99.90;;;;;;5075664;28;20013;-41
2021/12/22 02:08:21;;;;;;;12.75;5.82;;;-1.90;99.90;;;;;;5075745;28;20387;-42
2021/12/22 02:10:48;;;;;;;10.13;4.70;;;-2.00;99.90;;;;;;5077667;28;20292;-41
2021/12/22 02:13:19;;;;;;;13.25;6.15;;;-2.00;99.90;;;;;;5095839;28;20474;-41
2021/12/22 02:15:46;;;;;;;10.70;5.53;;;-2.00;99.90;;;;;;5095716;28;20028;-41
2021/12/22 02:18:17;;;;;;;13.10;6.57;;;-2.00;99.90;;;;;;5095086;28;20024;-42
2021/12/22 02:20:42;;;;;;;15.77;5.13;;;-2.00;99.90;;;;;;5095737;28;20036;-43
2021/12/22 02:23:08;;;;;;;12.25;5.63;;;-2.00;99.90;;;;;;5095762;28;20039;-41
2021/12/22 02:25:35;;;;;;;15.05;6.65;;;-2.00;99.90;;;;;;5095202;28;20479;-41
2021/12/22 02:28:03;;;;;;;18.30;5.65;;;-2.10;99.90;;;;;;5095784;28;20059;-42
2021/12/22 02:30:29;;;;;;;12.82;6.15;;;-2.10;99.90;;;;;;5094989;28;20024;-42
2021/12/22 02:35:45;;;;;;;11.45;4.72;;;-2.10;99.90;;;;;;5077653;28;20036;-41
2021/12/22 02:38:17;;;;;;;8.10;5.22;;;-2.10;99.90;;;;;;5094900;28;20047;-41
2021/12/22 02:40:49;;;;;;;13.63;5.25;;;-2.20;99.90;;;;;;5077084;28;20131;-41
2021/12/22 02:43:20;;;;;;;11.93;5.22;;;-2.20;99.90;;;;;;5075015;28;20059;-41
2021/12/22 02:45:47;;;;;;;11.85;4.10;;;-2.20;99.90;;;;;;5074572;28;20029;-41
2021/12/22 02:48:12;;;;;;;13.98;6.68;;;-2.20;99.90;;;;;;5075041;28;20051;-42
2021/12/22 02:50:40;;;;;;;8.48;4.65;;;-2.20;99.90;;;;;;5074817;28;20601;-41
2021/12/22 02:53:10;;;;;;;10.60;4.78;;;-2.20;99.90;;;;;;5075486;28;20056;-42
2021/12/22 02:55:53;;;;;;;10.85;5.53;;;-2.30;99.90;;;;;;5074808;28;20029;-41
2021/12/22 02:58:34;;;;;;;12.60;6.22;;;-2.30;99.90;;;;;;5074860;28;20037;-43
2021/12/22 03:06:13;;;;;;;8.80;5.80;;;-2.40;99.90;;;;;;5081039;28;20090;-41
2021/12/22 03:08:38;;;;;;;8.15;3.60;;;-2.40;99.90;;;;;;5074588;28;20031;-41
2021/12/22 03:11:04;;;;;;;12.55;5.13;;;-2.40;99.90;;;;;;5074520;28;20107;-41
2021/12/22 03:13:32;;;;;;;11.25;5.45;;;-2.40;99.90;;;;;;5072859;28;20467;-41
2021/12/22 03:15:58;;;;;;;11.90;5.03;;;-2.50;99.90;;;;;;5074390;28;20024;-42
2021/12/22 03:18:24;;;;;;;10.93;5.68;;;-2.40;99.90;;;;;;5074216;28;20032;-41
2021/12/22 03:20:58;;;;;;;13.18;5.07;;;-2.40;99.90;;;;;;5073664;28;20503;-42
2021/12/22 03:23:24;;;;;;;10.05;5.93;;;-2.50;99.90;;;;;;5073981;28;20503;-42
2021/12/22 03:25:49;;;;;;;11.00;4.88;;;-2.50;99.90;;;;;;5074279;28;20048;-41
2021/12/22 03:28:15;;;;;;;9.32;4.30;;;-2.50;99.90;;;;;;5073532;28;20021;-41
2021/12/22 03:30:40;;;;;;;9.65;4.63;;;-2.50;99.90;;;;;;5074094;28;20052;-42
2021/12/22 03:33:06;;;;;;;9.70;4.55;;;-2.50;99.90;;;;;;5093500;28;20028;-42
2021/12/22 03:35:34;;;;;;;12.10;5.53;;;-2.50;99.90;;;;;;5093768;28;20149;-42
2021/12/22 03:38:00;;;;;;;10.80;6.10;;;-2.60;99.90;;;;;;5094181;28;20028;-40
2021/12/22 03:40:27;;;;;;;12.43;5.50;;;-2.60;99.90;;;;;;5094107;28;20371;-41
2021/12/22 03:42:53;;;;;;;7.63;4.30;;;-2.60;99.90;;;;;;5093560;28;20016;-41
2021/12/22 03:45:18;;;;;;;8.65;5.72;;;-2.60;99.90;;;;;;5094093;28;20027;-40
2021/12/22 03:47:45;;;;;;;13.27;5.28;;;-2.60;99.90;;;;;;5093682;28;20107;-43
2021/12/22 03:50:12;;;;;;;9.43;4.90;;;-2.70;99.90;;;;;;5094071;28;20111;-44
2021/12/22 03:52:38;;;;;;;11.48;4.30;;;-2.70;99.90;;;;;;5093940;28;20023;-41
2021/12/22 03:55:06;;;;;;;9.25;5.53;;;-2.70;99.90;;;;;;5093449;28;20383;-42
2021/12/22 03:57:31;;;;;;;9.50;5.10;;;-2.70;99.90;;;;;;5093840;28;20016;-43
2021/12/22 03:59:59;;;;;;;21.80;5.53;;;-2.70;99.90;;;;;;5093446;28;20055;-41
2021/12/22 04:02:26;;;;;;;12.60;5.10;;;-2.80;99.90;;;;;;5079363;28;20060;-41
2021/12/22 04:04:52;;;;;;;10.57;4.38;;;-2.80;99.90;;;;;;5073335;28;20103;-41
2021/12/22 04:07:18;;;;;;;10.80;6.32;;;-2.80;99.90;;;;;;5073515;28;20099;-41
2021/12/22 04:09:44;;;;;;;8.00;4.88;;;-2.80;99.90;;;;;;5072857;28;20021;-42
2021/12/22 04:12:11;;;;;;;15.80;5.80;;;-2.80;99.90;;;;;;5073488;28;20025;-41
2021/12/22 04:14:36;;;;;;;17.02;5.75;;;-2.80;99.90;;;;;;5073311;28;20021;-42
2021/12/22 04:17:03;;;;;;;9.18;4.50;;;-2.80;99.90;;;;;;5072799;28;20035;-42
2021/12/22 04:19:28;;;;;;;13.40;5.32;;;-2.80;99.90;;;;;;5073200;28;20474;-42
2021/12/22 04:21:54;;;;;;;9.95;5.70;;;-2.90;99.90;;;;;;5073054;28;20073;-42
2021/12/22 04:24:20;;;;;;;10.02;4.65;;;-2.90;99.90;;;;;;5072385;28;20016;-42
2021/12/22 04:26:46;;;;;;;9.40;4.45;;;-2.90;99.90;;;;;;5073051;28;20027;-43
2021/12/22 04:29:12;;;;;;;7.28;4.95;;;-2.90;99.90;;;;;;5073173;28;20025;-43
2021/12/22 04:31:39;;;;;;;6.80;4.20;;;-2.90;99.90;;;;;;5073313;28;20021;-43
2021/12/22 04:34:08;;;;;;;10.10;5.35;;;-2.90;99.90;;;;;;5073083;28;20501;-42
2021/12/22 04:36:35;;;;;;;12.45;5.80;;;-3.00;99.90;;;;;;5073029;28;20527;-42
2021/12/22 04:39:01;;;;;;;14.35;5.57;;;-3.00;99.90;;;;;;5072486;28;20024;-42
2021/12/22 04:41:27;;;;;;;11.90;5.13;;;-3.00;99.90;;;;;;5072967;28;20021;-41
2021/12/22 04:43:53;;;;;;;11.82;5.32;;;-3.00;99.90;;;;;;5072912;28;20445;-41
2021/12/22 04:46:21;;;;;;;10.70;4.45;;;-3.00;99.90;;;;;;5072274;28;20431;-41
2021/12/22 04:48:46;;;;;;;10.57;4.50;;;-3.00;99.90;;;;;;5072823;28;20364;-41
2021/12/22 04:51:24;;;;;;;10.52;5.68;;;-3.00;99.90;;;;;;5073395;28;20020;-41
2021/12/22 04:53:57;;;;;;;6.15;3.80;;;-3.00;99.90;;;;;;5072944;28;20121;-41
2021/12/22 04:56:22;;;;;;;13.80;5.10;;;-3.00;99.90;;;;;;5072801;28;20154;-41
2021/12/22 04:58:48;;;;;;;9.35;5.55;;;-3.00;99.90;;;;;;5072239;28;20108;-42
2021/12/22 05:01:13;;;;;;;7.85;4.00;;;-3.00;99.90;;;;;;5072584;28;20127;-40
2021/12/22 05:03:42;;;;;;;11.93;5.43;;;-3.10;99.90;;;;;;5072699;28;20028;-42
2021/12/22 05:06:07;;;;;;;;;;;-3.10;99.90;;;;;;5072793;28;20079;-40
2021/12/22 05:08:33;;;;;;;8.90;4.05;;;-3.10;99.90;;;;;;5072675;28;19912;-40
2021/12/22 05:10:59;;;;;;;10.48;6.00;;;-3.10;99.90;;;;;;5074542;28;20518;-42
2021/12/22 05:13:24;;;;;;;11.55;5.07;;;-3.10;99.90;;;;;;5072148;28;20021;-40
2021/12/22 05:15:51;;;;;;;10.35;4.15;;;-3.10;99.90;;;;;;5072601;28;20099;-41
2021/12/22 05:18:47;;;;;;;11.38;4.78;;;-3.20;99.90;;;;;;5072639;28;20052;-42
2021/12/22 05:21:08;;;;;;;11.15;4.35;;;-3.20;99.90;;;;;;5072010;28;20094;-42
2021/12/22 05:23:34;;;;;;;8.70;4.32;;;-3.20;99.90;;;;;;5072545;28;20025;-43
2021/12/22 05:25:59;;;;;;;11.35;5.65;;;-3.20;99.90;;;;;;5072542;28;20098;-40
2021/12/22 05:28:25;;;;;;;11.02;5.63;;;-3.20;99.90;;;;;;5072007;28;20084;-41
2021/12/22 05:30:50;;;;;;;8.30;5.07;;;-3.20;99.90;;;;;;5072522;28;20024;-40
2021/12/22 05:33:16;;;;;;;12.93;5.93;;;-3.20;99.90;;;;;;5071959;28;20032;-41
2021/12/22 05:35:41;;;;;;;13.45;5.15;;;-3.10;99.90;;;;;;5072757;28;20024;-41
2021/12/22 05:38:07;;;;;;;10.55;5.57;;;-3.20;99.90;;;;;;5076132;28;20024;-41
2021/12/22 05:40:33;;;;;;;9.18;5.03;;;-3.10;99.90;;;;;;5079627;28;20024;-41
2021/12/22 05:42:58;;;;;;;9.20;4.82;;;-3.10;99.90;;;;;;5096373;28;20020;-44
2021/12/22 05:45:25;;;;;;;16.30;5.78;;;-3.10;99.90;;;;;;5096489;28;20025;-41
2021/12/22 05:47:52;;;;;;;11.20;5.43;;;-3.10;99.90;;;;;;5095781;28;20023;-41
2021/12/22 05:50:19;;;;;;;12.93;5.35;;;-3.10;99.90;;;;;;5096281;28;20020;-42
2021/12/22 05:52:45;;;;;;;11.48;6.30;;;-3.10;99.90;;;;;;5096159;28;20142;-40
2021/12/22 05:55:10;;;;;;;13.98;6.50;;;-3.10;99.90;;;;;;5095718;28;20099;-44
2021/12/22 05:57:36;;;;;;;7.00;4.82;;;-3.10;99.90;;;;;;5096138;28;20059;-41
2021/12/22 06:00:03;;;;;;;13.00;5.60;;;-3.10;99.90;;;;;;5093722;28;20060;-41
2021/12/22 06:02:29;;;;;;;6.55;4.22;;;-3.10;99.90;;;;;;5095561;28;20108;-43
2021/12/22 06:04:54;;;;;;;10.02;4.85;;;-3.10;99.90;;;;;;5095987;28;20099;-41
2021/12/22 06:07:20;;;;;;;17.65;6.90;;;-3.10;99.90;;;;;;5095683;28;20030;-42
2021/12/22 06:09:45;;;;;;;17.35;5.88;;;-3.10;99.90;;;;;;5095460;28;20024;-41
2021/12/22 06:12:11;;;;;;;21.02;5.72;;;-3.10;99.90;;;;;;5095849;28;20069;-41
2021/12/22 06:14:36;;;;;;;7.82;4.32;;;-3.10;99.90;;;;;;5095961;28;20024;-41
2021/12/22 06:17:02;;;;;;;11.70;5.75;;;-3.20;99.90;;;;;;5095336;28;20133;-41
2021/12/22 06:19:28;;;;;;;11.02;4.75;;;-3.20;99.90;;;;;;5095790;28;20032;-41
2021/12/22 06:21:53;;;;;;;22.73;6.20;;;-3.20;99.90;;;;;;5093085;28;20020;-41
2021/12/22 06:24:19;;;;;;;7.68;4.15;;;-3.20;99.90;;;;;;5095245;28;20437;-43
2021/12/22 06:26:44;;;;;;;9.60;5.88;;;-3.20;99.90;;;;;;5095518;28;20474;-43
2021/12/22 06:29:10;;;;;;;10.02;4.53;;;-3.10;99.90;;;;;;5095616;28;20359;-41
2021/12/22 06:31:35;;;;;;;10.18;4.95;;;-3.10;99.90;;;;;;5094834;28;20390;-41
2021/12/22 06:34:01;;;;;;;12.90;6.30;;;-3.10;99.90;;;;;;5095510;28;20348;-42
2021/12/22 06:36:27;;;;;;;18.15;6.35;;;-3.10;99.90;;;;;;5095341;28;20067;-41
2021/12/22 06:38:52;;;;;;;11.90;5.72;;;-3.10;99.90;;;;;;5094777;28;20028;-42
2021/12/22 06:41:18;;;;;;;12.15;4.88;;;-3.10;99.90;;;;;;5095379;28;20483;-41
2021/12/22 06:43:43;;;;;;;15.07;5.57;;;-3.10;99.90;;;;;;5094733;28;20031;-40
2021/12/22 06:46:09;;;;;;;11.25;4.57;;;-3.10;99.90;;;;;;5095207;28;20028;-42
2021/12/22 06:48:35;;;;;;;12.60;6.00;;;-3.10;99.90;;;;;;5094938;28;20016;-42
2021/12/22 06:51:01;;;;;;;11.32;4.90;;;-3.10;99.90;;;;;;5094435;28;20016;-43
2021/12/22 06:53:26;;;;;;;9.63;5.32;;;-3.10;99.90;;;;;;5092958;28;20027;-41
2021/12/22 06:55:52;;;;;;;11.82;5.63;;;-3.00;99.90;;;;;;5095041;28;20046;-41
2021/12/22 06:58:18;;;;;;;8.02;4.75;;;-3.10;99.90;;;;;;5094283;28;20016;-43
2021/12/22 07:00:43;;;;;;;9.30;4.97;;;-3.00;99.90;;;;;;5094687;28;20051;-42
2021/12/22 07:03:09;;;;;;;12.25;5.10;;;-3.10;99.90;;;;;;5094851;28;20114;-41
2021/12/22 07:05:34;;;;;;;7.40;4.72;;;-3.00;99.90;;;;;;5093191;28;20027;-42
2021/12/22 07:08:00;;;;;;;12.85;5.80;;;-3.00;99.90;;;;;;5077140;28;20021;-41
2021/12/22 07:10:26;;;;;;;12.93;6.47;;;-3.00;99.90;;;;;;5075598;28;20124;-42
2021/12/22 07:12:51;;;;;;;13.02;7.47;;;-3.00;99.90;;;;;;5084693;28;20020;-43
2021/12/22 07:15:18;;;;;;;16.90;6.68;;;-3.00;99.90;;;;;;5074472;28;20017;-44
2021/12/22 07:17:48;;;;;;;14.57;6.65;;;-3.00;99.90;;;;;;5073805;28;20111;-41
2021/12/22 07:20:14;;;;;;;26.30;10.43;;;-3.00;99.90;;;;;;5072876;28;20040;-44
2021/12/22 07:22:40;;;;;;;33.90;13.10;;;-3.00;99.90;;;;;;5073699;28;20032;-44
2021/12/22 07:25:07;;;;;;;21.85;11.75;;;-3.00;99.90;;;;;;5073596;28;20078;-42
2021/12/22 07:27:32;;;;;;;13.07;7.32;;;-3.00;99.90;;;;;;5072651;28;20025;-41
2021/12/22 07:29:58;;;;;;;18.25;7.90;;;-3.00;99.90;;;;;;5073492;28;20029;-40
2021/12/22 07:32:24;;;;;;;15.02;5.85;;;-3.00;99.90;;;;;;5073285;28;20393;-42
2021/12/22 07:35:03;;;;;;;17.23;7.40;;;-3.00;99.90;;;;;;5072751;28;20044;-41
2021/12/22 07:37:39;;;;;;;9.60;4.18;;;-3.00;99.90;;;;;;5073142;28;20023;-41
2021/12/22 07:40:24;;;;;;;8.60;4.43;;;-3.00;99.90;;;;;;5072607;28;20029;-42
2021/12/22 07:42:50;;;;;;;9.43;3.97;;;-3.00;99.90;;;;;;5077634;28;20028;-42
2021/12/22 07:45:15;;;;;;;12.43;5.50;;;-3.00;99.90;;;;;;5080533;28;20036;-41
2021/12/22 07:47:41;;;;;;;13.25;6.00;;;-3.00;99.90;;;;;;5072629;28;20025;-41
2021/12/22 07:50:08;;;;;;;13.93;6.32;;;-3.00;99.90;;;;;;5073271;28;20031;-41
2021/12/22 07:52:33;;;;;;;8.48;4.05;;;-3.00;99.90;;;;;;5072919;28;20058;-41
2021/12/22 07:54:59;;;;;;;9.25;5.45;;;-3.00;99.90;;;;;;5072354;28;20111;-41
2021/12/22 07:57:25;;;;;;;7.15;4.38;;;-3.00;99.90;;;;;;5072777;28;20052;-41
2021/12/22 07:59:51;;;;;;;8.90;4.65;;;-3.00;99.90;;;;;;5071711;28;20037;-40
2021/12/22 08:02:17;;;;;;;9.23;5.00;;;-3.00;99.90;;;;;;5077604;28;20031;-44
2021/12/22 08:04:43;;;;;;;11.70;4.85;;;-2.90;99.90;;;;;;5093114;28;20016;-40
2021/12/22 08:07:09;;;;;;;9.70;5.38;;;-2.90;99.90;;;;;;5093193;28;20028;-39
2021/12/22 08:09:35;;;;;;;13.90;5.30;;;-2.90;99.90;;;;;;5092348;28;20103;-41
2021/12/22 08:12:04;;;;;;;16.08;6.68;;;-2.90;99.90;;;;;;5092965;28;20028;-40
2021/12/22 08:14:40;;;;;;;8.13;4.88;;;-2.90;99.90;;;;;;5092537;28;20024;-45
2021/12/22 08:17:07;;;;;;;10.52;5.50;;;-2.90;99.90;;;;;;5092470;28;20017;-41
2021/12/22 08:19:33;;;;;;;10.05;5.13;;;-2.80;99.90;;;;;;5092549;28;20115;-44
2021/12/22 08:21:58;;;;;;;11.80;5.75;;;-2.80;99.90;;;;;;5093009;28;20601;-40
2021/12/22 08:24:24;;;;;;;11.05;5.50;;;-2.80;99.90;;;;;;5092103;28;20502;-40
2021/12/22 08:26:50;;;;;;;15.40;5.30;;;-2.70;99.90;;;;;;5092681;28;20463;-42
2021/12/22 08:29:16;;;;;;;12.45;5.60;;;-2.70;99.90;;;;;;5092072;28;20107;-43
2021/12/22 08:31:42;;;;;;;12.18;5.75;;;-2.60;99.90;;;;;;5091465;28;20099;-41
2021/12/22 08:34:09;;;;;;;10.73;5.22;;;-2.60;99.90;;;;;;5080448;28;20047;-40
2021/12/22 08:39:20;;;;;;;9.90;6.07;;;-2.50;99.90;;;;;;5078246;28;20047;-43
2021/12/22 08:41:47;;;;;;;15.95;6.20;;;-2.50;99.90;;;;;;5072348;28;20486;-41
2021/12/22 08:44:15;;;;;;;10.95;5.00;;;-2.40;99.90;;;;;;5071894;28;20028;-41
2021/12/22 08:46:43;;;;;;;9.52;4.53;;;-2.40;99.90;;;;;;5054333;28;20380;-40
2021/12/22 08:49:09;;;;;;;13.13;5.50;;;-2.30;99.90;;;;;;5072388;28;20029;-42
2021/12/22 08:51:35;;;;;;;16.38;5.63;;;-2.30;99.90;;;;;;5086253;28;20032;-42
2021/12/22 08:54:01;;;;;;;12.50;5.10;;;-2.20;99.90;;;;;;5092507;28;20069;-41
2021/12/22 08:56:28;;;;;;;9.98;5.57;;;-2.10;99.90;;;;;;5092190;28;20099;-41
2021/12/22 08:58:54;;;;;;;7.20;4.68;;;-2.10;99.90;;;;;;5091858;28;20036;-41
2021/12/22 09:01:21;;;;;;;11.30;5.80;;;-2.00;99.90;;;;;;5092086;28;20048;-41
2021/12/22 09:03:47;;;;;;;18.17;6.22;;;-1.90;99.90;;;;;;5092146;28;20471;-40
2021/12/22 09:06:13;;;;;;;13.13;7.78;;;-1.90;99.90;;;;;;5091873;28;20035;-42
2021/12/22 09:08:40;;;;;;;15.13;6.88;;;-1.80;99.90;;;;;;5092090;28;20095;-41
2021/12/22 09:11:06;;;;;;;18.67;6.90;;;-1.80;99.90;;;;;;5094501;28;20054;-42
2021/12/22 09:13:31;;;;;;;16.42;7.65;;;-1.70;99.90;;;;;;5095570;28;20078;-41
2021/12/22 09:15:57;;;;;;;16.25;6.93;;;-1.70;99.90;;;;;;5096303;28;20020;-41
2021/12/22 09:18:22;;;;;;;17.10;6.93;;;-1.60;99.90;;;;;;5095267;28;20012;-41
2021/12/22 09:20:48;;;;;;;13.05;7.38;;;-1.60;99.90;;;;;;5096123;28;20024;-44
2021/12/22 09:23:14;;;;;;;13.38;6.55;;;-1.50;99.90;;;;;;5091184;28;20379;-42
2021/12/22 09:25:40;;;;;;;17.00;7.53;;;-1.50;99.90;;;;;;5088848;28;20027;-41
2021/12/22 09:28:06;;;;;;;19.10;7.63;;;-1.50;99.90;;;;;;5075482;28;20017;-40
2021/12/22 09:30:35;;;;;;;13.25;7.90;;;-1.40;99.90;;;;;;5083399;28;20022;-40
2021/12/22 09:33:03;;;;;;;15.10;6.05;;;-1.40;99.90;;;;;;5095413;28;20024;-40
2021/12/22 09:35:29;;;;;;;19.58;5.38;;;-1.40;99.90;;;;;;5095682;28;20021;-42
2021/12/22 09:37:54;;;;;;;18.90;11.82;;;-1.40;99.90;;;;;;5095943;28;20498;-42
2021/12/22 09:40:20;;;;;;;13.40;7.88;;;-1.40;99.90;;;;;;5095021;28;20032;-41
2021/12/22 09:42:45;;;;;;;17.77;7.28;;;-1.30;99.90;;;;;;5086997;28;20023;-40
2021/12/22 09:45:11;;;;;;;13.52;6.90;;;-1.30;99.90;;;;;;5075376;28;20483;-44
2021/12/22 09:47:51;;;;;;;12.75;5.57;;;-1.30;99.90;;;;;;5074902;28;20052;-41
2021/12/22 09:50:34;;;;;;;12.65;6.60;;;-1.20;99.90;;;;;;5075118;28;20055;-41
2021/12/22 09:53:00;;;;;;;15.15;7.07;;;-1.10;99.90;;;;;;5075087;28;20434;-41
2021/12/22 09:55:26;;;;;;;15.43;6.30;;;-1.00;99.90;;;;;;5074618;28;20095;-41
2021/12/22 09:57:51;;;;;;;8.20;4.95;;;-1.00;99.90;;;;;;5075329;28;20506;-40
2021/12/22 10:00:17;;;;;;;19.42;7.90;;;-0.80;99.90;;;;;;5074463;28;20087;-41
2021/12/22 10:02:42;;;;;;;11.93;6.18;;;-0.80;99.90;;;;;;5074543;28;20101;-42
2021/12/22 10:05:08;;;;;;;18.92;6.70;;;-0.80;99.90;;;;;;5075133;28;20360;-42
2021/12/22 10:07:37;;;;;;;15.50;5.93;;;-0.70;99.90;;;;;;5073439;28;20128;-43
2021/12/22 10:10:09;;;;;;;11.60;5.68;;;-0.60;99.90;;;;;;5074241;28;20056;-45
2021/12/22 10:12:35;;;;;;;12.77;6.10;;;-0.60;99.90;;;;;;5085935;28;20044;-43
2021/12/22 10:15:04;;;;;;;11.90;5.50;;;-0.60;99.90;;;;;;5091659;28;20020;-40
2021/12/22 10:17:37;;;;;;;12.43;6.60;;;-0.50;99.90;;;;;;5093190;28;20040;-41
2021/12/22 10:20:08;;;;;;;19.92;7.80;;;-0.40;99.90;;;;;;5093906;28;20032;-42
2021/12/22 10:22:40;;;;;;;11.90;6.50;;;-0.30;99.90;;;;;;5091990;28;20055;-41
2021/12/22 10:25:12;;;;;;;16.23;7.63;;;-0.30;99.90;;;;;;5093432;28;20534;-42
2021/12/22 10:27:40;;;;;;;13.63;6.72;;;-0.20;99.90;;;;;;5084719;28;20024;-41
2021/12/22 10:30:24;;;;;;;23.98;7.22;;;-0.10;99.90;;;;;;5093066;28;20028;-40
2021/12/22 10:33:07;;;;;;;17.58;5.93;;;0.00;99.90;;;;;;5093184;28;20035;-40
2021/12/22 10:35:34;;;;;;;13.25;6.82;;;0.10;99.90;;;;;;5089485;28;20082;-40
2021/12/22 10:38:01;;;;;;;18.20;7.20;;;0.20;99.90;;;;;;5092335;28;20134;-40
2021/12/22 10:40:33;;;;;;;14.73;6.38;;;0.30;99.90;;;;;;5092652;28;20543;-42
2021/12/22 10:43:00;;;;;;;15.55;6.43;;;0.40;99.90;;;;;;5091896;28;20099;-42
2021/12/22 10:45:27;;;;;;;13.93;5.63;;;0.40;99.90;;;;;;5091925;28;20028;-40
2021/12/22 10:50:43;;;;;;;12.63;7.05;;;0.50;99.90;;;;;;5092918;28;20498;-40
2021/12/22 10:53:12;;;;;;;14.73;5.72;;;0.60;99.90;;;;;;5092400;28;20020;-41
2021/12/22 10:55:41;;;;;;;11.27;5.75;;;0.70;99.90;;;;;;5081642;28;20497;-41
2021/12/22 10:58:27;;;;;;;11.60;6.20;;;0.70;99.90;;;;;;5092343;28;20034;-40
2021/12/22 11:01:25;;;;;;;11.23;5.88;;;0.80;99.90;;;;;;5092880;28;20425;-43
2021/12/22 11:04:00;;;;;;;10.65;5.15;;;0.80;99.90;;;;;;5039197;28;20040;-46
2021/12/22 11:06:29;;;;;;;9.40;5.18;;;0.80;99.90;;;;;;5093017;28;20036;-41
2021/12/22 11:08:58;;;;;;;9.32;5.25;;;0.80;99.90;;;;;;5093269;28;20107;-40
2021/12/22 11:11:28;;;;;;;11.85;5.55;;;0.90;99.90;;;;;;5091892;28;20054;-43
2021/12/22 11:14:09;;;;;;;16.88;6.97;;;1.00;99.90;;;;;;5085678;28;20042;-41
2021/12/22 11:16:54;;;;;;;11.10;5.63;;;1.10;99.90;;;;;;5092218;28;20023;-42
2021/12/22 11:19:21;;;;;;;14.25;5.97;;;1.10;99.90;;;;;;5091916;28;20371;-41
2021/12/22 11:22:01;;;;;;;14.65;6.43;;;1.20;99.90;;;;;;5092374;28;20364;-44
2021/12/22 11:24:28;;;;;;;12.18;6.07;;;1.30;99.90;;;;;;5092286;28;20035;-41
2021/12/22 11:26:54;;;;;;;13.38;5.78;;;1.30;99.90;;;;;;5092280;28;20110;-42
2021/12/22 11:29:20;;;;;;;13.32;6.00;;;1.40;99.90;;;;;;5092404;28;20016;-41
2021/12/22 11:31:47;;;;;;;13.57;6.63;;;1.40;99.90;;;;;;5092017;28;20032;-40
2021/12/22 11:34:16;;;;;;;10.70;5.28;;;1.50;99.90;;;;;;5072061;28;20382;-42
2021/12/22 11:36:43;;;;;;;12.35;6.50;;;1.50;99.90;;;;;;5092472;28;20048;-40
2021/12/22 11:39:09;;;;;;;13.77;6.13;;;1.60;99.90;;;;;;5091864;28;20079;-42
2021/12/22 11:41:43;;;;;;;16.13;8.18;;;1.60;99.90;;;;;;5092154;28;20056;-42
2021/12/22 11:44:12;;;;;;;12.30;7.03;;;1.70;99.90;;;;;;5091412;28;20036;-42
2021/12/22 11:46:40;;;;;;;13.57;6.32;;;1.70;99.90;;;;;;5091557;28;20032;-40
2021/12/22 11:49:06;;;;;;;13.55;6.10;;;1.80;99.90;;;;;;5092360;28;20039;-40
2021/12/22 11:51:34;;;;;;;9.40;5.07;;;1.80;99.90;;;;;;5088086;28;20379;-43
2021/12/22 11:54:09;;;;;;;10.23;5.45;;;1.80;99.90;;;;;;5084658;28;20507;-40
2021/12/22 11:56:50;;;;;;;11.23;6.18;;;1.70;99.90;;;;;;5072547;27;20421;-40
2021/12/22 11:59:38;;;;;;;17.60;6.55;;;1.70;99.90;;;;;;5070134;28;20028;-40
2021/12/22 12:02:22;;;;;;;12.32;5.88;;;1.70;99.90;;;;;;5068704;28;20029;-45
2021/12/22 12:05:11;;;;;;;8.75;5.60;;;1.70;99.90;;;;;;5072081;28;20032;-40
2021/12/22 12:07:41;;;;;;;10.13;5.43;;;1.60;99.90;;;;;;5066166;28;20033;-39
2021/12/22 12:10:40;;;;;;;10.30;5.93;;;1.70;99.90;;;;;;5068138;28;20375;-39
2021/12/22 12:13:27;;;;;;;9.30;5.15;;;1.70;99.90;;;;;;5067449;28;20520;-40
2021/12/22 12:21:49;;;;;;;10.38;5.03;;;1.80;99.90;;;;;;5067633;28;20067;-39
2021/12/22 12:24:35;;;;;;;8.70;5.20;;;1.80;99.90;;;;;;5067360;28;20028;-42
2021/12/22 12:27:22;;;;;;;12.02;5.35;;;1.70;99.90;;;;;;5061778;28;20036;-41
2021/12/22 12:29:57;;;;;;;13.73;5.82;;;1.70;99.90;;;;;;5067416;28;20098;-39
2021/12/22 12:32:40;;;;;;;10.38;5.82;;;1.80;99.90;;;;;;5066860;28;20028;-42
2021/12/22 12:35:23;;;;;;;16.83;5.45;;;1.80;99.90;;;;;;5068129;28;20624;-40
2021/12/22 12:38:12;;;;;;;9.88;5.95;;;1.90;99.90;;;;;;5067993;28;20032;-41
2021/12/22 12:41:11;;;;;;;10.25;4.85;;;2.00;99.90;;;;;;5067259;28;20048;-42
2021/12/22 12:49:02;;;;;;;10.15;5.00;;;2.10;99.90;;;;;;5067513;28;20041;-40
2021/12/22 12:51:54;;;;;;;11.75;5.70;;;2.10;99.90;;;;;;5059961;28;20063;-41
2021/12/22 12:54:21;;;;;;;15.38;6.47;;;2.10;99.90;;;;;;5066737;28;20467;-42
2021/12/22 12:56:51;;;;;;;18.48;10.80;;;2.20;99.90;;;;;;5066962;28;20071;-39
2021/12/22 12:59:26;;;;;;;12.10;6.45;;;2.20;99.90;;;;;;5066897;28;20024;-40
2021/12/22 13:01:52;;;;;;;25.50;8.27;;;2.10;99.90;;;;;;5070252;28;20032;-41
2021/12/22 13:04:20;;;;;;;17.38;8.25;;;2.20;99.90;;;;;;5066332;28;20130;-40
2021/12/22 13:06:49;;;;;;;9.80;5.50;;;2.20;99.90;;;;;;5060942;28;20047;-40
2021/12/22 13:09:25;;;;;;;15.43;7.00;;;2.20;99.90;;;;;;5053421;28;20021;-41
2021/12/22 13:12:10;;;;;;;11.23;5.88;;;2.10;99.90;;;;;;5052976;28;20029;-40
2021/12/22 13:17:27;;;;;;;15.20;6.40;;;2.00;99.90;;;;;;5053505;28;20043;-46
2021/12/22 13:19:55;;;;;;;11.77;6.25;;;2.00;99.90;;;;;;5052887;28;20033;-41
2021/12/22 13:22:36;;;;;;;11.63;6.05;;;2.00;99.90;;;;;;5053176;28;20032;-40
2021/12/22 13:25:12;;;;;;;22.55;6.80;;;2.00;99.90;;;;;;5053525;28;20025;-44